sensor_id;sensor_type;location;lat;lon;timestamp;P1;durP1;ratioP1;P2;durP2;ratioP2
10465;SDS011;5280;42.600;23.556;2022-12-07T00:01:05;13.50;;;8.87;;
10465;SDS011;5280;42.600;23.556;2022-12-07T00:03:33;11.30;;;8.07;;
10465;SDS011;5280;42.600;23.556;2022-12-07T00:06:00;15.10;;;8.63;;
10465;SDS011;5280;42.600;23.556;2022-12-07T00:08:30;13.77;;;8.50;;
10465;SDS011;5280;42.600;23.556;2022-12-07T00:11:00;11.40;;;8.07;;
10465;SDS011;5280;42.600;23.556;2022-12-07T00:13:28;12.93;;;8.57;;
10465;SDS011;5280;42.600;23.556;2022-12-07T00:15:54;16.03;;;9.23;;
10465;SDS011;5280;42.600;23.556;2022-12-07T00:18:21;11.93;;;8.73;;
10465;SDS011;5280;42.600;23.556;2022-12-07T00:20:48;13.40;;;8.83;;
10465;SDS011;5280;42.600;23.556;2022-12-07T00:23:15;13.33;;;9.03;;
10465;SDS011;5280;42.600;23.556;2022-12-07T00:25:43;13.10;;;8.77;;
10465;SDS011;5280;42.600;23.556;2022-12-07T00:28:10;14.77;;;9.80;;
10465;SDS011;5280;42.600;23.556;2022-12-07T00:30:37;15.17;;;9.63;;
10465;SDS011;5280;42.600;23.556;2022-12-07T00:33:03;13.60;;;9.10;;
10465;SDS011;5280;42.600;23.556;2022-12-07T00:35:30;12.07;;;9.00;;
10465;SDS011;5280;42.600;23.556;2022-12-07T00:37:57;12.70;;;9.03;;
10465;SDS011;5280;42.600;23.556;2022-12-07T00:40:24;10.87;;;8.73;;
10465;SDS011;5280;42.600;23.556;2022-12-07T00:42:53;9.33;;;7.37;;
10465;SDS011;5280;42.600;23.556;2022-12-07T00:45:27;12.80;;;8.43;;
10465;SDS011;5280;42.600;23.556;2022-12-07T00:47:56;13.57;;;9.00;;
10465;SDS011;5280;42.600;23.556;2022-12-07T00:50:33;11.90;;;8.00;;
10465;SDS011;5280;42.600;23.556;2022-12-07T00:53:00;10.63;;;7.73;;
10465;SDS011;5280;42.600;23.556;2022-12-07T00:55:32;9.70;;;7.30;;
10465;SDS011;5280;42.600;23.556;2022-12-07T00:58:04;9.90;;;7.30;;
10465;SDS011;5280;42.600;23.556;2022-12-07T01:00:31;8.43;;;6.67;;
10465;SDS011;5280;42.600;23.556;2022-12-07T01:03:02;13.33;;;7.33;;
10465;SDS011;5280;42.600;23.556;2022-12-07T01:05:32;10.07;;;7.07;;
10465;SDS011;5280;42.600;23.556;2022-12-07T01:08:00;9.00;;;6.93;;
10465;SDS011;5280;42.600;23.556;2022-12-07T01:10:27;13.20;;;7.53;;
10465;SDS011;5280;42.600;23.556;2022-12-07T01:13:03;9.33;;;7.17;;
10465;SDS011;5280;42.600;23.556;2022-12-07T01:15:31;10.30;;;7.97;;
10465;SDS011;5280;42.600;23.556;2022-12-07T01:17:58;14.00;;;8.70;;
10465;SDS011;5280;42.600;23.556;2022-12-07T01:20:27;11.10;;;7.83;;
10465;SDS011;5280;42.600;23.556;2022-12-07T01:23:02;12.13;;;8.10;;
10465;SDS011;5280;42.600;23.556;2022-12-07T01:25:29;11.73;;;8.83;;
10465;SDS011;5280;42.600;23.556;2022-12-07T01:27:56;10.57;;;7.60;;
10465;SDS011;5280;42.600;23.556;2022-12-07T01:30:24;11.33;;;8.00;;
10465;SDS011;5280;42.600;23.556;2022-12-07T01:32:57;14.00;;;8.83;;
10465;SDS011;5280;42.600;23.556;2022-12-07T01:35:24;10.47;;;8.30;;
10465;SDS011;5280;42.600;23.556;2022-12-07T01:37:51;10.37;;;8.10;;
10465;SDS011;5280;42.600;23.556;2022-12-07T01:40:22;13.43;;;8.73;;
10465;SDS011;5280;42.600;23.556;2022-12-07T01:42:48;13.57;;;8.87;;
10465;SDS011;5280;42.600;23.556;2022-12-07T01:48:11;11.40;;;9.60;;
10465;SDS011;5280;42.600;23.556;2022-12-07T01:50:40;15.47;;;8.63;;
10465;SDS011;5280;42.600;23.556;2022-12-07T01:53:09;16.20;;;8.83;;
10465;SDS011;5280;42.600;23.556;2022-12-07T01:55:37;11.33;;;7.93;;
10465;SDS011;5280;42.600;23.556;2022-12-07T01:58:08;13.40;;;9.00;;
10465;SDS011;5280;42.600;23.556;2022-12-07T02:00:37;12.20;;;8.17;;
10465;SDS011;5280;42.600;23.556;2022-12-07T02:03:07;14.67;;;7.70;;
10465;SDS011;5280;42.600;23.556;2022-12-07T02:05:38;11.50;;;7.90;;
10465;SDS011;5280;42.600;23.556;2022-12-07T02:08:07;9.63;;;7.13;;
10465;SDS011;5280;42.600;23.556;2022-12-07T02:10:39;10.00;;;7.83;;
10465;SDS011;5280;42.600;23.556;2022-12-07T02:13:08;9.47;;;6.93;;
10465;SDS011;5280;42.600;23.556;2022-12-07T02:15:41;11.57;;;7.10;;
10465;SDS011;5280;42.600;23.556;2022-12-07T02:18:28;11.07;;;7.53;;
10465;SDS011;5280;42.600;23.556;2022-12-07T02:21:05;7.47;;;5.80;;
10465;SDS011;5280;42.600;23.556;2022-12-07T02:23:43;8.93;;;6.93;;
10465;SDS011;5280;42.600;23.556;2022-12-07T02:26:44;8.83;;;5.53;;
10465;SDS011;5280;42.600;23.556;2022-12-07T02:29:30;9.03;;;6.10;;
10465;SDS011;5280;42.600;23.556;2022-12-07T02:32:03;7.90;;;6.10;;
10465;SDS011;5280;42.600;23.556;2022-12-07T02:34:38;8.47;;;6.17;;
10465;SDS011;5280;42.600;23.556;2022-12-07T02:37:10;8.90;;;5.30;;
10465;SDS011;5280;42.600;23.556;2022-12-07T02:39:47;9.83;;;6.07;;
10465;SDS011;5280;42.600;23.556;2022-12-07T02:42:21;8.70;;;6.07;;
10465;SDS011;5280;42.600;23.556;2022-12-07T02:44:54;9.10;;;6.37;;
10465;SDS011;5280;42.600;23.556;2022-12-07T02:47:21;8.07;;;6.03;;
10465;SDS011;5280;42.600;23.556;2022-12-07T02:49:51;6.60;;;5.00;;
10465;SDS011;5280;42.600;23.556;2022-12-07T02:52:18;8.50;;;5.90;;
10465;SDS011;5280;42.600;23.556;2022-12-07T02:54:45;9.57;;;5.50;;
10465;SDS011;5280;42.600;23.556;2022-12-07T02:57:16;8.43;;;5.63;;
10465;SDS011;5280;42.600;23.556;2022-12-07T03:00:03;9.53;;;5.03;;
10465;SDS011;5280;42.600;23.556;2022-12-07T03:02:36;6.67;;;5.63;;
10465;SDS011;5280;42.600;23.556;2022-12-07T03:05:16;11.87;;;6.37;;
10465;SDS011;5280;42.600;23.556;2022-12-07T03:07:57;8.63;;;5.03;;
10465;SDS011;5280;42.600;23.556;2022-12-07T03:10:33;7.60;;;6.03;;
10465;SDS011;5280;42.600;23.556;2022-12-07T03:13:07;7.00;;;5.60;;
10465;SDS011;5280;42.600;23.556;2022-12-07T03:15:41;8.00;;;5.50;;
10465;SDS011;5280;42.600;23.556;2022-12-07T03:18:15;7.43;;;5.47;;
10465;SDS011;5280;42.600;23.556;2022-12-07T03:20:45;6.40;;;5.73;;
10465;SDS011;5280;42.600;23.556;2022-12-07T03:23:14;7.10;;;5.40;;
10465;SDS011;5280;42.600;23.556;2022-12-07T03:25:45;7.80;;;5.90;;
10465;SDS011;5280;42.600;23.556;2022-12-07T03:28:16;8.17;;;5.60;;
10465;SDS011;5280;42.600;23.556;2022-12-07T03:30:47;6.50;;;5.37;;
10465;SDS011;5280;42.600;23.556;2022-12-07T03:33:20;7.83;;;5.63;;
10465;SDS011;5280;42.600;23.556;2022-12-07T03:35:54;7.67;;;6.03;;
10465;SDS011;5280;42.600;23.556;2022-12-07T03:38:28;8.17;;;6.50;;
10465;SDS011;5280;42.600;23.556;2022-12-07T03:41:00;7.93;;;5.50;;
10465;SDS011;5280;42.600;23.556;2022-12-07T03:43:30;7.20;;;6.03;;
10465;SDS011;5280;42.600;23.556;2022-12-07T03:46:15;6.67;;;5.73;;
10465;SDS011;5280;42.600;23.556;2022-12-07T03:48:50;9.23;;;6.40;;
10465;SDS011;5280;42.600;23.556;2022-12-07T03:51:31;8.50;;;5.70;;
10465;SDS011;5280;42.600;23.556;2022-12-07T03:54:07;10.63;;;6.33;;
10465;SDS011;5280;42.600;23.556;2022-12-07T03:56:38;11.10;;;6.20;;
10465;SDS011;5280;42.600;23.556;2022-12-07T03:59:07;8.20;;;5.27;;
10465;SDS011;5280;42.600;23.556;2022-12-07T04:01:36;10.10;;;6.00;;
10465;SDS011;5280;42.600;23.556;2022-12-07T04:04:03;6.67;;;5.37;;
10465;SDS011;5280;42.600;23.556;2022-12-07T04:06:30;9.73;;;5.60;;
10465;SDS011;5280;42.600;23.556;2022-12-07T04:08:57;7.07;;;5.60;;
10465;SDS011;5280;42.600;23.556;2022-12-07T04:11:27;10.87;;;6.33;;
10465;SDS011;5280;42.600;23.556;2022-12-07T04:13:55;6.53;;;5.60;;
10465;SDS011;5280;42.600;23.556;2022-12-07T04:16:41;7.40;;;5.80;;
10465;SDS011;5280;42.600;23.556;2022-12-07T04:19:08;10.30;;;5.50;;
10465;SDS011;5280;42.600;23.556;2022-12-07T04:21:35;7.70;;;5.60;;
10465;SDS011;5280;42.600;23.556;2022-12-07T04:24:02;6.50;;;5.17;;
10465;SDS011;5280;42.600;23.556;2022-12-07T04:26:29;7.60;;;5.67;;
10465;SDS011;5280;42.600;23.556;2022-12-07T04:28:56;7.33;;;5.33;;
10465;SDS011;5280;42.600;23.556;2022-12-07T04:31:23;9.27;;;5.83;;
10465;SDS011;5280;42.600;23.556;2022-12-07T04:33:51;8.10;;;6.00;;
10465;SDS011;5280;42.600;23.556;2022-12-07T04:36:18;8.23;;;5.60;;
10465;SDS011;5280;42.600;23.556;2022-12-07T04:38:45;7.70;;;6.10;;
10465;SDS011;5280;42.600;23.556;2022-12-07T04:41:13;9.97;;;6.10;;
10465;SDS011;5280;42.600;23.556;2022-12-07T04:43:40;8.13;;;5.83;;
10465;SDS011;5280;42.600;23.556;2022-12-07T04:46:06;9.80;;;5.87;;
10465;SDS011;5280;42.600;23.556;2022-12-07T04:48:33;10.30;;;6.23;;
10465;SDS011;5280;42.600;23.556;2022-12-07T04:51:02;7.80;;;5.77;;
10465;SDS011;5280;42.600;23.556;2022-12-07T04:53:33;8.20;;;6.80;;
10465;SDS011;5280;42.600;23.556;2022-12-07T04:56:03;9.50;;;6.47;;
10465;SDS011;5280;42.600;23.556;2022-12-07T04:58:30;9.67;;;6.90;;
10465;SDS011;5280;42.600;23.556;2022-12-07T05:00:59;10.00;;;7.67;;
10465;SDS011;5280;42.600;23.556;2022-12-07T05:03:28;10.67;;;6.87;;
10465;SDS011;5280;42.600;23.556;2022-12-07T05:05:55;10.37;;;7.03;;
10465;SDS011;5280;42.600;23.556;2022-12-07T05:08:23;9.77;;;6.70;;
10465;SDS011;5280;42.600;23.556;2022-12-07T05:10:50;9.43;;;6.90;;
10465;SDS011;5280;42.600;23.556;2022-12-07T05:13:17;10.83;;;6.73;;
10465;SDS011;5280;42.600;23.556;2022-12-07T05:15:44;9.57;;;6.60;;
10465;SDS011;5280;42.600;23.556;2022-12-07T05:18:12;8.33;;;6.13;;
10465;SDS011;5280;42.600;23.556;2022-12-07T05:20:39;7.30;;;5.97;;
10465;SDS011;5280;42.600;23.556;2022-12-07T05:23:06;9.60;;;5.97;;
10465;SDS011;5280;42.600;23.556;2022-12-07T05:25:34;10.20;;;6.30;;
10465;SDS011;5280;42.600;23.556;2022-12-07T05:28:01;8.97;;;6.07;;
10465;SDS011;5280;42.600;23.556;2022-12-07T05:30:28;8.73;;;6.07;;
10465;SDS011;5280;42.600;23.556;2022-12-07T05:32:55;9.57;;;6.37;;
10465;SDS011;5280;42.600;23.556;2022-12-07T05:35:23;8.93;;;6.37;;
10465;SDS011;5280;42.600;23.556;2022-12-07T05:37:50;9.37;;;6.60;;
10465;SDS011;5280;42.600;23.556;2022-12-07T05:40:16;11.57;;;6.67;;
10465;SDS011;5280;42.600;23.556;2022-12-07T05:42:45;8.87;;;6.67;;
10465;SDS011;5280;42.600;23.556;2022-12-07T05:45:12;11.30;;;6.00;;
10465;SDS011;5280;42.600;23.556;2022-12-07T05:47:39;8.63;;;6.03;;
10465;SDS011;5280;42.600;23.556;2022-12-07T05:50:06;8.97;;;6.33;;
10465;SDS011;5280;42.600;23.556;2022-12-07T05:52:33;6.70;;;6.00;;
10465;SDS011;5280;42.600;23.556;2022-12-07T05:55:00;10.33;;;6.70;;
10465;SDS011;5280;42.600;23.556;2022-12-07T05:57:27;10.33;;;7.07;;
10465;SDS011;5280;42.600;23.556;2022-12-07T05:59:55;10.60;;;7.47;;
10465;SDS011;5280;42.600;23.556;2022-12-07T06:02:21;9.33;;;6.73;;
10465;SDS011;5280;42.600;23.556;2022-12-07T06:04:49;9.23;;;6.73;;
10465;SDS011;5280;42.600;23.556;2022-12-07T06:07:16;9.80;;;6.17;;
10465;SDS011;5280;42.600;23.556;2022-12-07T06:09:43;9.93;;;6.63;;
10465;SDS011;5280;42.600;23.556;2022-12-07T06:12:11;12.17;;;6.30;;
10465;SDS011;5280;42.600;23.556;2022-12-07T06:14:57;8.07;;;6.33;;
10465;SDS011;5280;42.600;23.556;2022-12-07T06:17:24;10.37;;;6.43;;
10465;SDS011;5280;42.600;23.556;2022-12-07T06:19:51;8.37;;;5.83;;
10465;SDS011;5280;42.600;23.556;2022-12-07T06:22:18;9.83;;;6.17;;
10465;SDS011;5280;42.600;23.556;2022-12-07T06:24:45;9.47;;;6.90;;
10465;SDS011;5280;42.600;23.556;2022-12-07T06:27:12;8.23;;;6.00;;
10465;SDS011;5280;42.600;23.556;2022-12-07T06:29:39;9.40;;;6.77;;
10465;SDS011;5280;42.600;23.556;2022-12-07T06:32:08;9.83;;;6.97;;
10465;SDS011;5280;42.600;23.556;2022-12-07T06:34:38;10.83;;;6.73;;
10465;SDS011;5280;42.600;23.556;2022-12-07T06:37:05;10.07;;;7.03;;
10465;SDS011;5280;42.600;23.556;2022-12-07T06:39:32;11.97;;;7.37;;
10465;SDS011;5280;42.600;23.556;2022-12-07T06:41:59;8.13;;;6.07;;
10465;SDS011;5280;42.600;23.556;2022-12-07T06:44:29;8.70;;;6.37;;
10465;SDS011;5280;42.600;23.556;2022-12-07T06:46:56;9.07;;;7.00;;
10465;SDS011;5280;42.600;23.556;2022-12-07T06:49:24;7.70;;;6.27;;
10465;SDS011;5280;42.600;23.556;2022-12-07T06:51:51;10.33;;;6.70;;
10465;SDS011;5280;42.600;23.556;2022-12-07T06:54:18;11.97;;;7.03;;
10465;SDS011;5280;42.600;23.556;2022-12-07T06:56:46;9.10;;;6.53;;
10465;SDS011;5280;42.600;23.556;2022-12-07T06:59:13;11.03;;;6.97;;
10465;SDS011;5280;42.600;23.556;2022-12-07T07:01:46;11.87;;;7.27;;
10465;SDS011;5280;42.600;23.556;2022-12-07T07:04:16;12.77;;;7.50;;
10465;SDS011;5280;42.600;23.556;2022-12-07T07:06:45;11.77;;;6.60;;
10465;SDS011;5280;42.600;23.556;2022-12-07T07:09:12;9.20;;;7.40;;
10465;SDS011;5280;42.600;23.556;2022-12-07T07:11:41;11.60;;;7.60;;
10465;SDS011;5280;42.600;23.556;2022-12-07T07:14:09;9.67;;;7.20;;
10465;SDS011;5280;42.600;23.556;2022-12-07T07:16:38;12.43;;;8.30;;
10465;SDS011;5280;42.600;23.556;2022-12-07T07:19:05;13.77;;;8.17;;
10465;SDS011;5280;42.600;23.556;2022-12-07T07:21:33;16.27;;;9.30;;
10465;SDS011;5280;42.600;23.556;2022-12-07T07:24:02;15.40;;;9.20;;
10465;SDS011;5280;42.600;23.556;2022-12-07T07:26:29;13.93;;;9.53;;
10465;SDS011;5280;42.600;23.556;2022-12-07T07:28:55;13.97;;;10.00;;
10465;SDS011;5280;42.600;23.556;2022-12-07T07:31:22;13.43;;;10.30;;
10465;SDS011;5280;42.600;23.556;2022-12-07T07:33:49;18.63;;;10.37;;
10465;SDS011;5280;42.600;23.556;2022-12-07T07:36:16;16.83;;;10.87;;
10465;SDS011;5280;42.600;23.556;2022-12-07T07:38:43;14.10;;;9.80;;
10465;SDS011;5280;42.600;23.556;2022-12-07T07:41:11;15.80;;;11.17;;
10465;SDS011;5280;42.600;23.556;2022-12-07T07:43:38;17.83;;;11.50;;
10465;SDS011;5280;42.600;23.556;2022-12-07T07:46:05;16.97;;;11.37;;
10465;SDS011;5280;42.600;23.556;2022-12-07T07:48:32;18.07;;;12.00;;
10465;SDS011;5280;42.600;23.556;2022-12-07T07:50:59;13.73;;;11.03;;
10465;SDS011;5280;42.600;23.556;2022-12-07T07:53:26;14.33;;;11.40;;
10465;SDS011;5280;42.600;23.556;2022-12-07T07:55:53;18.20;;;11.83;;
10465;SDS011;5280;42.600;23.556;2022-12-07T07:58:21;18.73;;;13.63;;
10465;SDS011;5280;42.600;23.556;2022-12-07T08:00:54;19.67;;;13.13;;
10465;SDS011;5280;42.600;23.556;2022-12-07T08:03:36;16.07;;;11.37;;
10465;SDS011;5280;42.600;23.556;2022-12-07T08:06:05;17.07;;;11.73;;
10465;SDS011;5280;42.600;23.556;2022-12-07T08:08:32;19.00;;;12.43;;
10465;SDS011;5280;42.600;23.556;2022-12-07T08:11:07;20.67;;;11.13;;
10465;SDS011;5280;42.600;23.556;2022-12-07T08:13:37;19.93;;;12.40;;
10465;SDS011;5280;42.600;23.556;2022-12-07T08:16:04;18.40;;;12.97;;
10465;SDS011;5280;42.600;23.556;2022-12-07T08:18:34;18.37;;;11.43;;
10465;SDS011;5280;42.600;23.556;2022-12-07T08:21:12;15.67;;;11.27;;
10465;SDS011;5280;42.600;23.556;2022-12-07T08:24:08;16.27;;;11.67;;
10465;SDS011;5280;42.600;23.556;2022-12-07T08:26:38;17.30;;;11.47;;
10465;SDS011;5280;42.600;23.556;2022-12-07T08:29:11;20.30;;;14.27;;
10465;SDS011;5280;42.600;23.556;2022-12-07T08:31:49;23.80;;;15.70;;
10465;SDS011;5280;42.600;23.556;2022-12-07T08:34:22;20.57;;;14.43;;
10465;SDS011;5280;42.600;23.556;2022-12-07T08:36:49;20.87;;;14.57;;
10465;SDS011;5280;42.600;23.556;2022-12-07T08:39:21;25.23;;;15.13;;
10465;SDS011;5280;42.600;23.556;2022-12-07T08:41:50;23.53;;;14.30;;
10465;SDS011;5280;42.600;23.556;2022-12-07T08:44:20;21.80;;;14.87;;
10465;SDS011;5280;42.600;23.556;2022-12-07T08:46:51;20.73;;;14.43;;
10465;SDS011;5280;42.600;23.556;2022-12-07T08:49:32;24.80;;;15.20;;
10465;SDS011;5280;42.600;23.556;2022-12-07T08:52:07;21.90;;;16.03;;
10465;SDS011;5280;42.600;23.556;2022-12-07T08:54:38;24.73;;;14.80;;
10465;SDS011;5280;42.600;23.556;2022-12-07T08:57:09;21.17;;;14.23;;
10465;SDS011;5280;42.600;23.556;2022-12-07T08:59:43;20.17;;;13.87;;
10465;SDS011;5280;42.600;23.556;2022-12-07T09:02:10;20.93;;;14.83;;
10465;SDS011;5280;42.600;23.556;2022-12-07T09:04:48;22.60;;;13.13;;
10465;SDS011;5280;42.600;23.556;2022-12-07T09:07:15;20.10;;;13.73;;
10465;SDS011;5280;42.600;23.556;2022-12-07T09:09:42;19.73;;;13.90;;
10465;SDS011;5280;42.600;23.556;2022-12-07T09:12:10;22.17;;;14.80;;
10465;SDS011;5280;42.600;23.556;2022-12-07T09:14:39;19.33;;;13.10;;
10465;SDS011;5280;42.600;23.556;2022-12-07T09:17:08;21.03;;;13.83;;
10465;SDS011;5280;42.600;23.556;2022-12-07T09:19:39;21.67;;;13.63;;
10465;SDS011;5280;42.600;23.556;2022-12-07T09:22:07;19.13;;;13.90;;
10465;SDS011;5280;42.600;23.556;2022-12-07T09:24:37;22.87;;;15.17;;
10465;SDS011;5280;42.600;23.556;2022-12-07T09:27:04;21.53;;;14.63;;
10465;SDS011;5280;42.600;23.556;2022-12-07T09:29:34;18.33;;;13.87;;
10465;SDS011;5280;42.600;23.556;2022-12-07T09:32:03;21.03;;;15.13;;
10465;SDS011;5280;42.600;23.556;2022-12-07T09:34:31;19.30;;;12.80;;
10465;SDS011;5280;42.600;23.556;2022-12-07T09:37:00;22.50;;;13.90;;
10465;SDS011;5280;42.600;23.556;2022-12-07T09:39:31;20.80;;;14.23;;
10465;SDS011;5280;42.600;23.556;2022-12-07T09:41:59;19.13;;;13.63;;
10465;SDS011;5280;42.600;23.556;2022-12-07T09:44:35;17.17;;;13.00;;
10465;SDS011;5280;42.600;23.556;2022-12-07T09:47:05;18.30;;;13.03;;
10465;SDS011;5280;42.600;23.556;2022-12-07T09:49:33;20.57;;;12.87;;
10465;SDS011;5280;42.600;23.556;2022-12-07T09:52:04;18.67;;;12.67;;
10465;SDS011;5280;42.600;23.556;2022-12-07T09:54:45;16.97;;;11.60;;
10465;SDS011;5280;42.600;23.556;2022-12-07T09:57:14;16.83;;;11.93;;
10465;SDS011;5280;42.600;23.556;2022-12-07T09:59:42;15.03;;;10.77;;
10465;SDS011;5280;42.600;23.556;2022-12-07T10:02:20;13.97;;;9.80;;
10465;SDS011;5280;42.600;23.556;2022-12-07T10:04:56;14.33;;;9.87;;
10465;SDS011;5280;42.600;23.556;2022-12-07T10:07:27;15.87;;;9.67;;
10465;SDS011;5280;42.600;23.556;2022-12-07T10:09:58;11.40;;;8.73;;
10465;SDS011;5280;42.600;23.556;2022-12-07T10:12:42;14.93;;;9.13;;
10465;SDS011;5280;42.600;23.556;2022-12-07T10:15:20;13.27;;;9.03;;
10465;SDS011;5280;42.600;23.556;2022-12-07T10:17:47;12.20;;;9.07;;
10465;SDS011;5280;42.600;23.556;2022-12-07T10:20:19;11.77;;;9.03;;
10465;SDS011;5280;42.600;23.556;2022-12-07T10:22:58;12.53;;;9.30;;
10465;SDS011;5280;42.600;23.556;2022-12-07T10:25:27;12.67;;;9.10;;
10465;SDS011;5280;42.600;23.556;2022-12-07T10:28:02;13.37;;;10.03;;
10465;SDS011;5280;42.600;23.556;2022-12-07T10:30:46;14.00;;;9.67;;
10465;SDS011;5280;42.600;23.556;2022-12-07T10:33:21;12.83;;;9.83;;
10465;SDS011;5280;42.600;23.556;2022-12-07T10:35:56;15.30;;;10.50;;
10465;SDS011;5280;42.600;23.556;2022-12-07T10:38:24;16.03;;;10.50;;
10465;SDS011;5280;42.600;23.556;2022-12-07T10:41:02;15.90;;;11.30;;
10465;SDS011;5280;42.600;23.556;2022-12-07T10:43:30;15.90;;;10.70;;
10465;SDS011;5280;42.600;23.556;2022-12-07T10:46:13;16.90;;;10.87;;
10465;SDS011;5280;42.600;23.556;2022-12-07T10:48:58;13.63;;;10.23;;
10465;SDS011;5280;42.600;23.556;2022-12-07T10:51:37;17.33;;;10.33;;
10465;SDS011;5280;42.600;23.556;2022-12-07T10:54:12;14.37;;;10.10;;
10465;SDS011;5280;42.600;23.556;2022-12-07T10:56:48;13.77;;;9.87;;
10465;SDS011;5280;42.600;23.556;2022-12-07T10:59:26;14.07;;;9.97;;
10465;SDS011;5280;42.600;23.556;2022-12-07T11:02:19;14.30;;;9.63;;
10465;SDS011;5280;42.600;23.556;2022-12-07T11:05:06;12.40;;;9.50;;
10465;SDS011;5280;42.600;23.556;2022-12-07T11:07:47;13.60;;;10.23;;
10465;SDS011;5280;42.600;23.556;2022-12-07T11:10:26;14.03;;;9.70;;
10465;SDS011;5280;42.600;23.556;2022-12-07T11:13:04;13.63;;;10.03;;
10465;SDS011;5280;42.600;23.556;2022-12-07T11:15:47;13.60;;;10.03;;
10465;SDS011;5280;42.600;23.556;2022-12-07T11:18:25;13.10;;;9.50;;
10465;SDS011;5280;42.600;23.556;2022-12-07T11:20:57;12.73;;;8.60;;
10465;SDS011;5280;42.600;23.556;2022-12-07T11:23:39;14.53;;;9.77;;
10465;SDS011;5280;42.600;23.556;2022-12-07T11:26:13;15.07;;;9.60;;
10465;SDS011;5280;42.600;23.556;2022-12-07T11:28:57;15.67;;;9.00;;
10465;SDS011;5280;42.600;23.556;2022-12-07T11:31:37;11.83;;;7.90;;
10465;SDS011;5280;42.600;23.556;2022-12-07T11:34:19;12.00;;;8.13;;
10465;SDS011;5280;42.600;23.556;2022-12-07T11:36:56;14.47;;;8.93;;
10465;SDS011;5280;42.600;23.556;2022-12-07T11:39:26;14.63;;;9.60;;
10465;SDS011;5280;42.600;23.556;2022-12-07T11:42:00;13.93;;;8.87;;
10465;SDS011;5280;42.600;23.556;2022-12-07T11:44:32;11.00;;;8.53;;
10465;SDS011;5280;42.600;23.556;2022-12-07T11:47:05;12.07;;;9.13;;
10465;SDS011;5280;42.600;23.556;2022-12-07T11:49:39;11.73;;;9.40;;
10465;SDS011;5280;42.600;23.556;2022-12-07T11:52:13;14.37;;;8.53;;
10465;SDS011;5280;42.600;23.556;2022-12-07T11:54:48;14.30;;;9.07;;
10465;SDS011;5280;42.600;23.556;2022-12-07T11:57:20;10.90;;;8.90;;
10465;SDS011;5280;42.600;23.556;2022-12-07T11:59:56;11.53;;;8.17;;
10465;SDS011;5280;42.600;23.556;2022-12-07T12:02:26;14.10;;;8.77;;
10465;SDS011;5280;42.600;23.556;2022-12-07T12:05:01;12.03;;;7.60;;
10465;SDS011;5280;42.600;23.556;2022-12-07T12:07:39;11.80;;;8.23;;
10465;SDS011;5280;42.600;23.556;2022-12-07T12:10:14;10.07;;;7.90;;
10465;SDS011;5280;42.600;23.556;2022-12-07T12:15:55;10.77;;;7.73;;
10465;SDS011;5280;42.600;23.556;2022-12-07T12:18:35;8.87;;;7.10;;
10465;SDS011;5280;42.600;23.556;2022-12-07T12:21:18;10.60;;;7.27;;
10465;SDS011;5280;42.600;23.556;2022-12-07T12:23:49;9.23;;;7.70;;
10465;SDS011;5280;42.600;23.556;2022-12-07T12:26:24;12.00;;;8.33;;
10465;SDS011;5280;42.600;23.556;2022-12-07T12:28:54;12.50;;;7.87;;
10465;SDS011;5280;42.600;23.556;2022-12-07T12:31:34;10.70;;;8.07;;
10465;SDS011;5280;42.600;23.556;2022-12-07T12:34:10;10.30;;;8.40;;
10465;SDS011;5280;42.600;23.556;2022-12-07T12:36:59;10.83;;;8.37;;
10465;SDS011;5280;42.600;23.556;2022-12-07T12:39:26;10.10;;;8.00;;
10465;SDS011;5280;42.600;23.556;2022-12-07T12:41:57;13.73;;;8.17;;
10465;SDS011;5280;42.600;23.556;2022-12-07T12:50:32;11.70;;;8.17;;
10465;SDS011;5280;42.600;23.556;2022-12-07T12:53:01;12.17;;;8.97;;
10465;SDS011;5280;42.600;23.556;2022-12-07T12:58:47;13.87;;;8.27;;
10465;SDS011;5280;42.600;23.556;2022-12-07T13:04:25;13.97;;;8.93;;
10465;SDS011;5280;42.600;23.556;2022-12-07T13:06:57;11.13;;;8.33;;
10465;SDS011;5280;42.600;23.556;2022-12-07T13:09:24;11.30;;;8.10;;
10465;SDS011;5280;42.600;23.556;2022-12-07T13:11:59;12.60;;;7.57;;
10465;SDS011;5280;42.600;23.556;2022-12-07T13:14:55;12.43;;;8.60;;
10465;SDS011;5280;42.600;23.556;2022-12-07T13:23:16;13.63;;;9.73;;
10465;SDS011;5280;42.600;23.556;2022-12-07T13:25:48;14.10;;;9.67;;
10465;SDS011;5280;42.600;23.556;2022-12-07T13:28:20;14.57;;;8.97;;
10465;SDS011;5280;42.600;23.556;2022-12-07T13:31:00;14.23;;;9.57;;
10465;SDS011;5280;42.600;23.556;2022-12-07T13:33:35;13.43;;;9.83;;
10465;SDS011;5280;42.600;23.556;2022-12-07T13:36:02;13.97;;;9.93;;
10465;SDS011;5280;42.600;23.556;2022-12-07T13:38:30;16.23;;;8.53;;
10465;SDS011;5280;42.600;23.556;2022-12-07T13:41:00;11.13;;;7.63;;
10465;SDS011;5280;42.600;23.556;2022-12-07T13:43:42;10.57;;;8.10;;
10465;SDS011;5280;42.600;23.556;2022-12-07T13:46:15;11.20;;;8.37;;
10465;SDS011;5280;42.600;23.556;2022-12-07T13:48:46;14.00;;;7.77;;
10465;SDS011;5280;42.600;23.556;2022-12-07T13:51:17;11.87;;;8.43;;
10465;SDS011;5280;42.600;23.556;2022-12-07T13:53:46;11.97;;;9.03;;
10465;SDS011;5280;42.600;23.556;2022-12-07T13:56:14;14.17;;;8.83;;
10465;SDS011;5280;42.600;23.556;2022-12-07T13:58:42;13.73;;;9.93;;
10465;SDS011;5280;42.600;23.556;2022-12-07T14:01:09;12.50;;;8.40;;
10465;SDS011;5280;42.600;23.556;2022-12-07T14:03:39;11.43;;;7.80;;
10465;SDS011;5280;42.600;23.556;2022-12-07T14:06:17;12.03;;;8.23;;
10465;SDS011;5280;42.600;23.556;2022-12-07T14:08:47;12.53;;;8.60;;
10465;SDS011;5280;42.600;23.556;2022-12-07T14:11:15;15.07;;;7.70;;
10465;SDS011;5280;42.600;23.556;2022-12-07T14:13:56;10.33;;;7.83;;
10465;SDS011;5280;42.600;23.556;2022-12-07T14:16:26;10.60;;;7.37;;
10465;SDS011;5280;42.600;23.556;2022-12-07T14:18:57;11.67;;;7.90;;
10465;SDS011;5280;42.600;23.556;2022-12-07T14:21:25;11.07;;;7.90;;
10465;SDS011;5280;42.600;23.556;2022-12-07T14:24:08;10.40;;;7.57;;
10465;SDS011;5280;42.600;23.556;2022-12-07T14:26:37;11.57;;;7.27;;
10465;SDS011;5280;42.600;23.556;2022-12-07T14:29:29;12.33;;;7.40;;
10465;SDS011;5280;42.600;23.556;2022-12-07T14:32:01;10.37;;;7.77;;
10465;SDS011;5280;42.600;23.556;2022-12-07T14:34:53;10.60;;;7.07;;
10465;SDS011;5280;42.600;23.556;2022-12-07T14:37:24;10.60;;;7.53;;
10465;SDS011;5280;42.600;23.556;2022-12-07T14:39:52;8.03;;;6.57;;
10465;SDS011;5280;42.600;23.556;2022-12-07T14:42:18;8.63;;;7.17;;
10465;SDS011;5280;42.600;23.556;2022-12-07T14:44:46;9.10;;;6.90;;
10465;SDS011;5280;42.600;23.556;2022-12-07T14:47:13;9.63;;;6.87;;
10465;SDS011;5280;42.600;23.556;2022-12-07T14:49:40;7.73;;;6.17;;
10465;SDS011;5280;42.600;23.556;2022-12-07T14:52:09;7.53;;;6.73;;
10465;SDS011;5280;42.600;23.556;2022-12-07T14:54:41;11.80;;;6.67;;
10465;SDS011;5280;42.600;23.556;2022-12-07T14:57:09;9.17;;;6.57;;
10465;SDS011;5280;42.600;23.556;2022-12-07T14:59:36;12.67;;;6.97;;
10465;SDS011;5280;42.600;23.556;2022-12-07T15:02:03;8.37;;;5.23;;
10465;SDS011;5280;42.600;23.556;2022-12-07T15:04:30;8.07;;;6.13;;
10465;SDS011;5280;42.600;23.556;2022-12-07T15:06:57;12.37;;;5.50;;
10465;SDS011;5280;42.600;23.556;2022-12-07T15:09:26;9.00;;;6.17;;
10465;SDS011;5280;42.600;23.556;2022-12-07T15:11:53;10.60;;;6.40;;
10465;SDS011;5280;42.600;23.556;2022-12-07T15:14:20;7.53;;;6.40;;
10465;SDS011;5280;42.600;23.556;2022-12-07T15:16:46;7.40;;;6.17;;
10465;SDS011;5280;42.600;23.556;2022-12-07T15:19:14;8.50;;;6.07;;
10465;SDS011;5280;42.600;23.556;2022-12-07T15:21:42;7.37;;;5.87;;
10465;SDS011;5280;42.600;23.556;2022-12-07T15:24:09;8.27;;;5.77;;